Terminal Aerodrome Forecast
Issued by NWS

Home | Current Version | Previous Version | Text Only | Print | Product List | Glossary On
Versions: 1 2 3 4 5 6 7 8 9 10 11 12 13 14 15 16
000
FTUS44 KTSA 110520
TAFFYV
TAF
KFYV 110520Z 1106/1206 17015G22KT P6SM OVC030
     FM110900 17012G19KT P6SM BKN025
     FM111300 20013G22KT P6SM OVC015
     FM120200 30011KT P6SM OVC015=

USA.gov is the U.S. government's official web portal to all federal, state and local government web resources and services.